Benge, WA (99105)

9:26 PM PST on December 09, 2016 (GMT -0800)
Winona-Silk Stocking Road | | Change Station

Elev 1483 ft 46.94 °N, 117.80 °W | Updated 24 seconds ago

Overcast
Overcast
23.7 °F
Feels Like 24 °F
N
0.0
Wind Variable Wind from SE
Gusts 0.0 mph

Today
High -- | Low -- °F
--% Chance of Precip.
Yesterday
High -- | Low -- °F
Precip. -- in
Pressure 30.04 in
Visibility 3.0 miles
Clouds Overcast 1400 ft
Windchill 24 °F
Dew Point 23 °F
Humidity 98%
Rainfall 0.00 in
Snow Depth Not available.
7:25 AM 4:03 PM
Waxing Gibbous, 80% visible
METAR KPUW 100453Z AUTO 28003KT 3SM -SN BR OVC014 M06/M07 A2994 RMK AO2 SLP170 P0000 T10561067
Pressure 30.04 in
Visibility 3.0 miles
Clouds Overcast 1400 ft
Windchill 24 °F
Dew Point 23 °F
Humidity 98%
Rainfall 0.00 in
Snow Depth Not available.
7:25 AM 4:03 PM
Waxing Gibbous, 80% visible
METAR KPUW 100453Z AUTO 28003KT 3SM -SN BR OVC014 M06/M07 A2994 RMK AO2 SLP170 P0000 T10561067

10-Day Weather Forecast

Almanac

Astronomy

Dec. 09, 2016 Rise Set
Actual Time
Civil Twilight
Nautical Twilight
Astronomical Twilight
Moon
Length of Visible Light
Length of Day
Tomorrow will be .
, % of the Moon is Illuminated

Today's Extremes

State Highs State Lows

Community

WunderPhotos

Upload Photos

1,956,529 photos uploaded!

WunderBlog® & News

Nearby

Air Quality

  Air Quality AQ Index Pollutant
Not available.

Snow Depth

Station Depth Elevation

Earthquake Activity

City Distance Mag. Time & Date
Minimum magnitude displayed is 2.5.

Coastal Water Temperatures

Place Temperature

Stations

Nearby Weather Stations

Station Location Temp. Windchill Dew Point Humidity Wind Precip. Elev Updated Type
                   

Watches & Warnings

There are currently no watches in effect.